KCBE

Greater Cumberland Regional Airport

Cumberland, West Virginia, USA
METAR KCBE 181433Z AUTO 25006KT 10SM SCT037 SCT046 28/21 A2996 RMK AO1
Observed Flight Rules
Aug-18 @ 14:33 UTC (19 minutes ago) Visual Flight Rules
Wind Visibility Clouds
250° at 6 knots 10 miles
  • Scattered at 3,700' AGL
  • Scattered at 4,600' AGL
Temperatures Readings
Current 28°C / 82°F
Dewpoint 21°C / 70°F
Humidity 66%
Altimeter 29.96" Hg
Pressure 1015 hPa
Elevation 236
METAR KCBE 181433Z AUTO 25006KT 10SM SCT037 SCT046 28/21 A2996 RMK AO1
Observed Flight Rules
Aug-18 @ 14:33 UTC
(19 minutes ago)
VFR
Wind Visibility
250° at 6 knots 10 miles
Clouds
  • Scattered at 3,700' AGL
  • Scattered at 4,600' AGL
Temperature Dewpoint
28°C / 82°F 21°C / 70°F
Humidity Altimeter Pressure
66% 29.96" Hg 1015 hPa